createdAt,value
2023-02-06T00:01:40.103Z,10.10
2023-02-06T00:04:08.344Z,8.70
2023-02-06T00:06:39.466Z,10.70
2023-02-06T00:09:07.632Z,10.10
2023-02-06T00:11:42.101Z,9.20
2023-02-06T00:14:10.302Z,10.50
2023-02-06T00:16:58.289Z,10.50
2023-02-06T00:19:27.574Z,10.70
2023-02-06T00:21:55.928Z,11.40
2023-02-06T00:24:24.060Z,12.70
2023-02-06T00:26:52.578Z,11.20
2023-02-06T00:29:20.755Z,11.40
2023-02-06T00:31:48.995Z,12.20
2023-02-06T00:34:17.101Z,10.20
2023-02-06T00:36:45.340Z,10.50
2023-02-06T00:39:13.485Z,11.10
2023-02-06T00:41:42.050Z,9.60
2023-02-06T00:44:10.267Z,10.30
2023-02-06T00:46:39.652Z,10.20
2023-02-06T00:49:07.797Z,11.30
2023-02-06T00:51:38.853Z,11.80
2023-02-06T00:54:07.932Z,14.10
2023-02-06T00:56:36.198Z,11.50
2023-02-06T00:59:04.232Z,11.30
2023-02-06T01:01:34.112Z,11.90
2023-02-06T01:04:02.474Z,12.10
2023-02-06T01:06:42.116Z,10.90
2023-02-06T01:09:10.602Z,11.10
2023-02-06T01:11:38.877Z,12.60
2023-02-06T01:14:07.013Z,11.00
2023-02-06T01:16:37.005Z,10.80
2023-02-06T01:19:05.338Z,11.70
2023-02-06T01:21:34.384Z,11.20
2023-02-06T01:24:02.725Z,10.50
2023-02-06T01:26:31.305Z,11.20
2023-02-06T01:28:59.443Z,11.20
2023-02-06T01:31:29.388Z,11.30
2023-02-06T01:33:58.493Z,11.20
2023-02-06T01:36:26.811Z,12.20
2023-02-06T01:38:55.056Z,11.80
2023-02-06T01:41:24.664Z,11.00
2023-02-06T01:44:11.799Z,11.20
2023-02-06T01:46:40.893Z,12.40
2023-02-06T01:49:12.431Z,10.30
2023-02-06T01:51:40.938Z,10.40
2023-02-06T01:54:09.187Z,9.80
2023-02-06T01:56:41.716Z,8.90
2023-02-06T01:59:09.982Z,9.20
2023-02-06T02:01:38.018Z,8.90
2023-02-06T02:04:07.475Z,8.20
2023-02-06T02:06:35.924Z,9.70
2023-02-06T02:09:05.288Z,9.90
2023-02-06T02:11:35.492Z,9.20
2023-02-06T02:14:04.764Z,9.20
2023-02-06T02:16:56.335Z,8.90
2023-02-06T02:19:40.102Z,8.20
2023-02-06T02:22:14.157Z,8.70
2023-02-06T02:25:21.338Z,8.40
2023-02-06T02:28:23.786Z,8.50
2023-02-06T02:31:10.764Z,8.80
2023-02-06T02:33:38.855Z,8.30
2023-02-06T02:36:14.916Z,8.30
2023-02-06T02:38:46.757Z,7.80
2023-02-06T02:41:35.758Z,8.00
2023-02-06T02:44:16.756Z,8.10
2023-02-06T02:46:47.019Z,9.20
2023-02-06T02:49:26.776Z,9.30
2023-02-06T02:51:54.832Z,9.10
2023-02-06T02:54:22.920Z,9.00
2023-02-06T02:56:51.169Z,8.10
2023-02-06T02:59:25.405Z,9.00
2023-02-06T03:04:28.877Z,9.20
2023-02-06T03:07:24.797Z,10.70
2023-02-06T03:10:13.957Z,11.00
2023-02-06T03:12:49.649Z,9.50
2023-02-06T03:15:38.236Z,9.40
2023-02-06T03:18:13.771Z,9.30
2023-02-06T03:20:44.200Z,9.60
2023-02-06T03:23:15.690Z,9.00
2023-02-06T03:25:44.886Z,11.10
2023-02-06T03:28:23.901Z,10.00
2023-02-06T03:30:53.625Z,10.30
2023-02-06T03:33:26.941Z,10.30
2023-02-06T03:35:55.505Z,9.80
2023-02-06T03:38:27.908Z,9.50
2023-02-06T03:40:56.084Z,8.60
2023-02-06T03:43:24.837Z,9.00
2023-02-06T03:45:56.549Z,9.80
2023-02-06T03:48:29.141Z,11.50
2023-02-06T03:50:57.281Z,11.20
2023-02-06T03:53:26.014Z,10.30
2023-02-06T03:55:55.893Z,11.10
2023-02-06T03:58:24.694Z,9.80
2023-02-06T04:00:53.102Z,11.30
2023-02-06T04:03:22.969Z,9.90
2023-02-06T04:05:51.066Z,11.20
2023-02-06T04:08:20.366Z,10.70
2023-02-06T04:10:48.736Z,9.70
2023-02-06T04:13:18.092Z,9.20
2023-02-06T04:15:47.164Z,9.40
2023-02-06T04:18:16.205Z,9.90
2023-02-06T04:23:31.605Z,9.60
2023-02-06T04:25:59.883Z,10.00
2023-02-06T04:28:28.369Z,9.90
2023-02-06T04:30:57.002Z,8.90
2023-02-06T04:33:25.224Z,8.60
2023-02-06T04:35:54.119Z,10.00
2023-02-06T04:38:22.384Z,10.10
2023-02-06T04:40:50.713Z,9.40
2023-02-06T04:43:18.857Z,9.30
2023-02-06T04:45:47.032Z,8.00
2023-02-06T04:48:16.161Z,9.00
2023-02-06T04:50:45.129Z,7.60
2023-02-06T04:53:13.496Z,8.90
2023-02-06T04:55:42.424Z,9.90
2023-02-06T04:58:11.391Z,8.70
2023-02-06T05:00:40.017Z,9.80
2023-02-06T05:03:08.162Z,9.70
2023-02-06T05:05:37.367Z,9.80
2023-02-06T05:08:07.561Z,9.30
2023-02-06T05:10:35.938Z,9.90
2023-02-06T05:13:04.074Z,9.40
2023-02-06T05:15:32.328Z,9.30
2023-02-06T05:18:00.465Z,9.40
2023-02-06T05:20:28.804Z,8.50
2023-02-06T05:22:56.965Z,9.80
2023-02-06T05:25:25.271Z,9.70
2023-02-06T05:27:53.591Z,9.10
2023-02-06T05:30:22.103Z,9.10
2023-02-06T05:32:50.959Z,9.50
2023-02-06T05:35:19.070Z,9.00
2023-02-06T05:37:47.570Z,8.60
2023-02-06T05:40:15.770Z,8.90
2023-02-06T10:46:39.049Z,5.00
2023-02-06T10:49:36.468Z,4.40
2023-02-06T10:52:23.371Z,5.30
2023-02-06T10:54:52.774Z,5.60
2023-02-06T10:57:21.261Z,5.70
2023-02-06T10:59:53.281Z,6.30
2023-02-06T11:02:42.584Z,6.20
2023-02-06T11:05:15.710Z,5.10
2023-02-06T11:07:47.616Z,4.70
2023-02-06T11:10:18.264Z,3.70
2023-02-06T11:13:07.148Z,5.70
2023-02-06T11:15:40.762Z,4.70
2023-02-06T11:18:10.738Z,5.30
2023-02-06T11:20:38.608Z,6.80
2023-02-06T11:23:16.415Z,5.70
2023-02-06T11:25:43.919Z,6.20
2023-02-06T11:28:16.755Z,6.50
2023-02-06T11:30:54.924Z,5.50
2023-02-06T11:33:27.668Z,5.20
2023-02-06T11:35:55.349Z,5.40
2023-02-06T11:38:23.921Z,9.30
2023-02-06T11:41:16.970Z,9.70
2023-02-06T11:43:48.622Z,5.40
2023-02-06T11:46:17.686Z,6.40
2023-02-06T11:49:00.035Z,7.40
2023-02-06T11:51:46.012Z,6.70
2023-02-06T11:54:39.217Z,5.40
2023-02-06T11:57:22.917Z,4.70
2023-02-06T11:59:52.182Z,5.20
2023-02-06T12:02:36.042Z,6.00
2023-02-06T12:05:11.822Z,5.00
2023-02-06T12:07:42.768Z,6.00
2023-02-06T12:10:17.132Z,5.70
2023-02-06T12:12:48.736Z,6.40
2023-02-06T12:15:43.601Z,8.40
2023-02-06T12:18:16.235Z,6.30
2023-02-06T12:21:03.033Z,6.20
2023-02-06T12:24:00.918Z,6.60
2023-02-06T12:26:30.150Z,6.40
2023-02-06T12:29:24.203Z,5.90
2023-02-06T12:32:20.465Z,5.70
2023-02-06T12:34:55.783Z,5.70
2023-02-06T12:37:31.516Z,7.00
2023-02-06T12:39:59.224Z,5.50
2023-02-06T12:42:37.641Z,4.70
2023-02-06T12:45:15.033Z,7.50
2023-02-06T12:47:46.747Z,5.40
2023-02-06T12:50:29.878Z,6.10
2023-02-06T12:53:04.066Z,5.50
2023-02-06T12:56:03.192Z,6.40
2023-02-06T12:58:36.594Z,6.10
2023-02-06T13:01:31.021Z,6.10
2023-02-06T13:04:01.558Z,7.30
2023-02-06T13:07:02.177Z,6.80
2023-02-06T13:09:41.794Z,5.60
2023-02-06T13:12:15.532Z,6.70
2023-02-06T13:15:05.389Z,5.70
2023-02-06T13:17:36.044Z,5.80
2023-02-06T13:20:06.412Z,5.70
2023-02-06T13:22:50.425Z,6.90
2023-02-06T13:25:37.618Z,5.80
2023-02-06T13:28:24.966Z,6.70
2023-02-06T13:30:57.957Z,8.30
2023-02-06T13:33:25.186Z,5.60
2023-02-06T13:36:09.021Z,4.10
2023-02-06T13:41:14.801Z,4.50
2023-02-06T17:55:41.413Z,7.00
2023-02-06T17:58:08.728Z,7.00
2023-02-06T18:00:38.178Z,6.10
2023-02-06T18:03:05.604Z,6.00
2023-02-06T18:05:32.556Z,7.00
2023-02-06T18:07:59.829Z,8.10
2023-02-06T18:10:26.628Z,7.20
2023-02-06T18:12:53.663Z,7.40
2023-02-06T18:15:21.456Z,8.00
2023-02-06T18:17:48.677Z,10.20
2023-02-06T18:20:16.544Z,9.40
2023-02-06T18:22:43.561Z,7.10
2023-02-06T18:25:13.275Z,6.30
2023-02-06T18:27:41.485Z,6.80
2023-02-06T18:30:09.634Z,6.30
2023-02-06T18:32:37.180Z,6.30
2023-02-06T18:35:05.349Z,6.40
2023-02-06T18:37:32.714Z,6.80
2023-02-06T18:39:59.565Z,6.10
2023-02-06T18:42:45.361Z,6.80
2023-02-06T18:45:12.813Z,7.10
2023-02-06T18:47:41.667Z,7.40
2023-02-06T18:50:09.929Z,8.40
2023-02-06T18:52:39.677Z,10.90
2023-02-06T18:55:07.858Z,11.80
2023-02-06T18:57:35.079Z,10.90
2023-02-06T19:00:05.008Z,10.20
2023-02-06T19:02:31.969Z,10.90
2023-02-06T19:04:58.742Z,8.70
2023-02-06T19:07:25.913Z,9.30
2023-02-06T19:10:00.298Z,9.80
2023-02-06T19:12:28.379Z,7.50
2023-02-06T19:14:56.268Z,6.70
2023-02-06T19:17:23.997Z,7.90
2023-02-06T19:19:51.251Z,7.60
2023-02-06T19:22:19.432Z,8.00
2023-02-06T19:24:46.892Z,7.00
2023-02-06T19:27:15.346Z,7.60
2023-02-06T19:29:42.424Z,7.40
2023-02-06T19:32:11.437Z,7.50
2023-02-06T19:34:39.805Z,9.00
2023-02-06T19:37:08.478Z,7.90
2023-02-06T19:39:39.589Z,7.80
2023-02-06T19:42:15.176Z,8.30
2023-02-06T19:44:42.848Z,8.80
2023-02-06T19:47:09.881Z,8.00
2023-02-06T19:49:37.339Z,8.10
2023-02-06T19:52:06.025Z,8.20
2023-02-06T19:54:33.693Z,8.60
2023-02-06T19:57:00.944Z,8.70
2023-02-06T19:59:29.229Z,7.70
2023-02-06T20:01:59.487Z,8.10
2023-02-06T20:04:29.827Z,8.60
2023-02-06T20:06:57.803Z,8.60
2023-02-06T20:09:25.408Z,9.70
2023-02-06T20:11:54.302Z,8.80
2023-02-06T20:14:21.717Z,9.40
2023-02-06T20:16:49.188Z,9.70
2023-02-06T20:19:21.756Z,9.70
2023-02-06T20:21:50.687Z,9.50
2023-02-06T20:24:21.494Z,9.90
2023-02-06T20:26:50.359Z,10.60
2023-02-06T20:29:25.658Z,10.40
2023-02-06T20:31:53.837Z,11.30
2023-02-06T20:34:23.564Z,10.60
2023-02-06T20:36:51.003Z,9.60
2023-02-06T20:39:18.008Z,8.90
2023-02-06T20:41:45.358Z,9.80
2023-02-06T20:44:13.180Z,9.90
2023-02-06T20:46:41.572Z,10.10
2023-02-06T20:49:17.217Z,9.90
2023-02-06T20:51:43.943Z,9.90
2023-02-06T20:54:11.306Z,9.40
2023-02-06T20:56:39.387Z,9.30
2023-02-06T20:59:06.726Z,9.60
2023-02-06T21:01:34.337Z,8.50
2023-02-06T21:04:05.213Z,9.10
2023-02-06T21:06:36.304Z,9.20
2023-02-06T21:09:06.345Z,9.40
2023-02-06T21:11:41.339Z,9.00
2023-02-06T21:14:10.221Z,10.00
2023-02-06T21:16:39.527Z,9.60
2023-02-06T21:19:09.342Z,9.80
2023-02-06T21:21:37.864Z,11.00
2023-02-06T21:24:06.235Z,11.00
2023-02-06T21:26:35.199Z,11.10
2023-02-06T21:29:06.110Z,11.10
2023-02-06T21:31:38.187Z,10.40
2023-02-06T21:34:09.965Z,10.00
2023-02-06T21:36:38.758Z,10.60
2023-02-06T21:39:07.258Z,10.40
2023-02-06T21:41:36.053Z,9.90
2023-02-06T21:44:04.624Z,10.90
2023-02-06T21:46:33.601Z,8.80
2023-02-06T21:49:01.898Z,9.50
2023-02-06T21:51:31.650Z,8.10
2023-02-06T21:54:00.113Z,8.40
2023-02-06T21:56:28.873Z,8.70
2023-02-06T21:58:57.718Z,8.10
2023-02-06T22:01:28.724Z,7.20
2023-02-06T22:03:57.505Z,7.50
2023-02-06T22:06:26.519Z,6.60
2023-02-06T22:08:56.057Z,7.70
2023-02-06T22:11:26.406Z,8.30
2023-02-06T22:14:11.197Z,7.80
2023-02-06T22:16:39.871Z,7.50
2023-02-06T22:19:08.257Z,7.50
2023-02-06T22:21:36.520Z,6.90
2023-02-06T22:24:06.736Z,7.20
2023-02-06T22:26:38.553Z,8.00
2023-02-06T22:29:07.915Z,9.60
2023-02-06T22:31:40.547Z,9.90
2023-02-06T22:34:11.979Z,9.50
2023-02-06T22:36:40.368Z,8.70
2023-02-06T22:39:09.846Z,9.80
2023-02-06T22:41:39.189Z,9.10
2023-02-06T22:44:07.718Z,9.90
2023-02-06T22:46:37.213Z,10.40
2023-02-06T22:49:06.766Z,9.50
2023-02-06T22:51:36.769Z,10.80
2023-02-06T22:54:05.954Z,10.00
2023-02-06T22:56:37.244Z,9.80
2023-02-06T22:59:08.567Z,9.70
2023-02-06T23:01:36.861Z,9.70
2023-02-06T23:04:10.556Z,9.40
2023-02-06T23:06:43.113Z,9.70
2023-02-06T23:09:14.380Z,9.60
2023-02-06T23:11:42.755Z,10.00
2023-02-06T23:14:11.905Z,8.60
2023-02-06T23:16:42.979Z,9.50
2023-02-06T23:19:12.083Z,9.40
2023-02-06T23:21:41.377Z,8.60
2023-02-06T23:24:10.611Z,8.90
2023-02-06T23:26:38.751Z,8.90
2023-02-06T23:29:08.115Z,10.00
2023-02-06T23:31:36.439Z,9.10
2023-02-06T23:34:04.694Z,9.50
2023-02-06T23:36:32.839Z,10.40
2023-02-06T23:39:02.292Z,10.90
2023-02-06T23:41:30.458Z,12.40
2023-02-06T23:44:00.792Z,12.50
2023-02-06T23:46:29.907Z,12.10
2023-02-06T23:48:58.449Z,11.40
2023-02-06T23:51:26.569Z,11.10
2023-02-06T23:53:54.708Z,10.50
2023-02-06T23:56:25.445Z,10.10
2023-02-06T23:58:54.876Z,10.40
